Time;durP1;ratioP1;P1;durP2;ratioP2;P2;SDS_P1;SDS_P2;PMS_P1;PMS_P2;Temp;Humidity;BMP_temperature;BMP_pressure;BME280_temperature;BME280_humidity;BME280_pressure;Samples;Min_cycle;Max_cycle;Signal;HPM_P1;HPM_P2
2021/07/24 00:02:26;;;;;;;10.70;3.85;;;15.90;99.90;;;;;;5101867;28;20023;-76
2021/07/24 00:04:51;;;;;;;12.13;3.58;;;15.90;99.90;;;;;;5103340;28;20032;-76
2021/07/24 00:07:17;;;;;;;8.00;3.28;;;15.80;99.90;;;;;;5101299;28;20023;-76
2021/07/24 00:09:42;;;;;;;5.55;2.80;;;15.80;99.90;;;;;;5082040;28;20094;-76
2021/07/24 00:12:11;;;;;;;12.10;4.45;;;15.80;99.90;;;;;;5082655;28;20051;-76
2021/07/24 00:14:38;;;;;;;7.25;3.45;;;15.80;99.90;;;;;;5100777;28;20020;-76
2021/07/24 00:17:04;;;;;;;8.95;3.10;;;15.80;99.90;;;;;;5101215;28;20487;-76
2021/07/24 00:19:29;;;;;;;10.23;3.75;;;15.80;99.90;;;;;;5083478;28;20066;-75
2021/07/24 00:21:55;;;;;;;8.95;3.50;;;15.70;99.90;;;;;;5099966;28;20073;-75
2021/07/24 00:24:20;;;;;;;8.73;3.38;;;15.70;99.90;;;;;;5100976;28;20036;-75
2021/07/24 00:26:48;;;;;;;7.05;3.10;;;15.70;99.90;;;;;;5082375;28;20031;-75
2021/07/24 00:29:14;;;;;;;9.07;3.83;;;15.70;99.90;;;;;;5082222;28;20012;-76
2021/07/24 00:31:40;;;;;;;8.18;3.85;;;15.70;99.90;;;;;;5082799;28;20024;-76
2021/07/24 00:34:06;;;;;;;7.55;3.35;;;15.70;99.90;;;;;;5082316;28;20032;-75
2021/07/24 00:36:32;;;;;;;11.38;3.90;;;15.70;99.90;;;;;;5082208;28;20024;-76
2021/07/24 00:38:57;;;;;;;8.43;4.15;;;15.60;99.90;;;;;;5100285;28;20469;-76
2021/07/24 00:41:36;;;;;;;6.70;3.17;;;15.60;99.90;;;;;;5100618;28;20042;-76
2021/07/24 00:44:03;;;;;;;8.02;3.00;;;15.60;99.90;;;;;;5100007;28;20028;-76
2021/07/24 00:46:32;;;;;;;7.65;3.80;;;15.60;99.90;;;;;;5101163;28;20048;-75
2021/07/24 00:49:00;;;;;;;10.45;4.03;;;15.60;99.90;;;;;;5100169;28;20020;-76
2021/07/24 00:51:29;;;;;;;8.88;3.35;;;15.60;99.90;;;;;;5100180;28;20107;-75
2021/07/24 00:53:55;;;;;;;8.55;3.08;;;15.60;99.90;;;;;;5099820;28;20024;-77
2021/07/24 00:56:24;;;;;;;9.75;4.28;;;15.60;99.90;;;;;;5095649;28;20032;-77
2021/07/24 00:58:50;;;;;;;9.82;3.83;;;15.60;99.90;;;;;;5095706;28;20020;-77
2021/07/24 01:01:15;;;;;;;7.00;2.92;;;15.60;99.90;;;;;;5095651;28;20038;-75
2021/07/24 01:03:41;;;;;;;13.27;4.55;;;15.60;99.90;;;;;;5095747;28;20028;-77
2021/07/24 01:06:06;;;;;;;8.07;3.78;;;15.60;99.90;;;;;;5095371;28;20032;-76
2021/07/24 01:08:35;;;;;;;14.65;4.68;;;15.60;99.90;;;;;;5077235;28;20416;-75
2021/07/24 01:11:00;;;;;;;9.32;4.40;;;15.50;99.90;;;;;;5095483;28;20366;-76
2021/07/24 01:13:26;;;;;;;7.97;3.72;;;15.60;99.90;;;;;;5095391;28;20080;-77
2021/07/24 01:15:53;;;;;;;8.88;4.18;;;15.60;99.90;;;;;;5095301;28;20028;-75
2021/07/24 01:18:19;;;;;;;11.07;4.32;;;15.60;99.90;;;;;;5095280;28;20024;-77
2021/07/24 01:20:46;;;;;;;8.93;3.42;;;15.60;99.90;;;;;;5076925;28;20504;-75
2021/07/24 01:23:13;;;;;;;9.70;4.10;;;15.50;99.90;;;;;;5076980;28;20056;-76
2021/07/24 01:25:47;;;;;;;10.18;4.03;;;15.50;99.90;;;;;;5095395;28;20024;-77
2021/07/24 01:28:13;;;;;;;8.23;3.53;;;15.40;99.90;;;;;;5095670;28;20013;-77
2021/07/24 01:30:41;;;;;;;10.15;3.92;;;15.50;99.90;;;;;;5095095;28;20028;-77
2021/07/24 01:33:07;;;;;;;10.40;3.88;;;15.50;99.90;;;;;;5095700;28;20067;-77
2021/07/24 01:35:32;;;;;;;12.02;4.47;;;15.50;99.90;;;;;;5095732;28;20031;-78
2021/07/24 01:37:58;;;;;;;9.52;3.85;;;15.50;99.90;;;;;;5077616;28;20122;-78
2021/07/24 01:40:23;;;;;;;9.32;4.53;;;15.50;99.90;;;;;;5076848;28;20028;-77
2021/07/24 01:42:49;;;;;;;10.43;4.70;;;15.50;99.90;;;;;;5076665;28;20020;-77
2021/07/24 01:45:18;;;;;;;11.25;3.58;;;15.50;99.90;;;;;;5094797;28;20024;-77
2021/07/24 01:47:43;;;;;;;9.90;4.13;;;15.50;99.90;;;;;;5075886;28;20069;-78
2021/07/24 01:52:53;;;;;;;13.60;4.20;;;15.50;99.90;;;;;;5096086;28;20035;-78
2021/07/24 01:55:21;;;;;;;9.48;4.35;;;15.50;99.90;;;;;;5095041;28;20016;-77
2021/07/24 01:57:51;;;;;;;9.35;4.03;;;15.50;99.90;;;;;;5094748;28;20431;-76
2021/07/24 02:00:17;;;;;;;13.55;4.93;;;15.40;99.90;;;;;;5094200;28;20385;-77
2021/07/24 02:02:49;;;;;;;9.80;3.88;;;15.40;99.90;;;;;;5094651;28;20032;-78
2021/07/24 02:05:38;;;;;;;11.35;4.93;;;15.50;99.90;;;;;;5094750;28;20016;-76
2021/07/24 02:08:06;;;;;;;8.55;4.15;;;15.40;99.90;;;;;;5094705;28;20024;-77
2021/07/24 02:10:32;;;;;;;12.05;5.10;;;15.40;99.90;;;;;;5076593;28;20392;-78
2021/07/24 02:12:59;;;;;;;9.43;4.18;;;15.40;99.90;;;;;;5094911;28;20027;-78
2021/07/24 02:15:25;;;;;;;8.93;4.32;;;15.30;99.90;;;;;;5094952;28;20028;-76
2021/07/24 02:17:51;;;;;;;7.20;3.10;;;15.30;99.90;;;;;;5094433;28;20024;-74
2021/07/24 02:20:21;;;;;;;13.27;5.07;;;15.30;99.90;;;;;;5094063;28;20472;-77
2021/07/24 02:22:47;;;;;;;8.85;3.72;;;15.30;99.90;;;;;;5095196;28;20012;-78
2021/07/24 02:25:13;;;;;;;10.02;3.78;;;15.30;99.90;;;;;;5075877;28;20512;-77
2021/07/24 02:27:47;;;;;;;11.43;4.10;;;15.20;99.90;;;;;;5093707;28;20066;-77
2021/07/24 02:30:13;;;;;;;9.52;4.45;;;15.20;99.90;;;;;;5075839;28;20039;-76
2021/07/24 02:32:39;;;;;;;10.43;3.95;;;15.20;99.90;;;;;;5094006;28;20020;-75
2021/07/24 02:35:05;;;;;;;14.95;5.00;;;15.20;99.90;;;;;;5094014;28;20016;-75
2021/07/24 02:37:30;;;;;;;10.10;4.07;;;15.10;99.90;;;;;;5075541;28;20020;-75
2021/07/24 02:39:56;;;;;;;10.85;4.28;;;15.10;99.90;;;;;;5093621;28;20495;-77
2021/07/24 02:42:21;;;;;;;13.00;4.60;;;15.10;99.90;;;;;;5094266;28;20415;-76
2021/07/24 02:44:50;;;;;;;9.55;3.75;;;15.10;99.90;;;;;;5094186;28;20064;-76
2021/07/24 02:47:16;;;;;;;13.63;5.00;;;15.10;99.90;;;;;;5077657;28;20008;-77
2021/07/24 02:49:42;;;;;;;10.65;5.05;;;15.00;99.90;;;;;;5075427;28;20032;-75
2021/07/24 02:52:07;;;;;;;10.00;4.13;;;15.00;99.90;;;;;;5075544;28;20020;-74
2021/07/24 02:54:33;;;;;;;16.08;4.32;;;15.00;99.90;;;;;;5093387;28;20024;-76
2021/07/24 02:56:58;;;;;;;15.32;4.47;;;14.90;99.90;;;;;;5075438;28;20028;-75
2021/07/24 02:59:24;;;;;;;12.35;4.30;;;14.90;99.90;;;;;;5092603;28;20099;-75
2021/07/24 03:01:50;;;;;;;11.98;4.13;;;14.90;99.90;;;;;;5093037;28;20028;-76
2021/07/24 03:04:15;;;;;;;9.93;4.38;;;14.90;99.90;;;;;;5093257;28;20069;-76
2021/07/24 03:06:41;;;;;;;12.80;5.63;;;14.90;99.90;;;;;;5093420;28;20046;-75
2021/07/24 03:09:07;;;;;;;11.48;4.78;;;14.80;99.90;;;;;;5093447;28;20016;-76
2021/07/24 03:11:36;;;;;;;11.43;4.07;;;14.80;99.90;;;;;;5093174;28;20441;-76
2021/07/24 03:14:03;;;;;;;17.88;4.40;;;14.80;99.90;;;;;;5093216;28;20477;-76
2021/07/24 03:16:29;;;;;;;10.43;4.80;;;14.80;99.90;;;;;;5092934;28;20112;-76
2021/07/24 03:18:55;;;;;;;10.73;4.47;;;14.80;99.90;;;;;;5092977;28;20056;-76
2021/07/24 03:21:20;;;;;;;12.20;4.68;;;14.70;99.90;;;;;;5075006;28;20020;-75
2021/07/24 03:23:46;;;;;;;12.43;4.93;;;14.70;99.90;;;;;;5074926;28;20020;-75
2021/07/24 03:26:12;;;;;;;12.70;4.85;;;14.70;99.90;;;;;;5093326;28;20115;-75
2021/07/24 03:28:38;;;;;;;11.63;5.13;;;14.70;99.90;;;;;;5074885;28;20021;-76
2021/07/24 03:31:04;;;;;;;10.80;4.88;;;14.70;99.90;;;;;;5092852;28;20103;-75
2021/07/24 03:33:30;;;;;;;11.90;4.82;;;14.60;99.90;;;;;;5092928;28;20048;-75
2021/07/24 03:35:55;;;;;;;9.77;4.53;;;14.70;99.90;;;;;;5093064;28;20423;-77
2021/07/24 03:38:21;;;;;;;14.13;5.50;;;14.60;99.90;;;;;;5093318;28;20032;-74
2021/07/24 03:40:47;;;;;;;11.13;5.10;;;14.60;99.90;;;;;;5094483;22;20045;-75
2021/07/24 03:43:14;;;;;;;12.00;4.90;;;14.60;99.90;;;;;;5052777;28;20167;-76
2021/07/24 03:45:41;;;;;;;11.82;4.97;;;14.50;99.90;;;;;;5052797;28;20071;-74
2021/07/24 03:48:07;;;;;;;12.10;4.60;;;14.50;99.90;;;;;;5068311;22;20061;-75
2021/07/24 03:50:33;;;;;;;10.32;4.20;;;14.50;99.90;;;;;;5054708;28;20025;-75
2021/07/24 03:53:00;;;;;;;12.23;4.95;;;14.50;99.90;;;;;;5089005;28;20527;-75
2021/07/24 03:55:26;;;;;;;12.45;4.80;;;14.40;99.90;;;;;;5092879;28;20016;-75
2021/07/24 03:57:55;;;;;;;13.90;5.32;;;14.40;99.90;;;;;;5074650;28;20030;-75
2021/07/24 04:00:22;;;;;;;;;;;14.40;99.90;;;;;;5071426;28;20079;-76
2021/07/24 04:02:48;;;;;;;9.48;4.20;;;14.40;99.90;;;;;;5072515;28;19904;-76
2021/07/24 04:05:14;;;;;;;11.63;5.07;;;14.40;99.90;;;;;;5054509;28;20044;-76
2021/07/24 04:07:41;;;;;;;11.63;4.68;;;14.40;99.90;;;;;;5072410;28;20020;-76
2021/07/24 04:10:09;;;;;;;11.40;4.93;;;14.30;99.90;;;;;;5074414;28;20020;-76
2021/07/24 04:12:36;;;;;;;13.90;4.57;;;14.40;99.90;;;;;;5096301;28;20013;-76
2021/07/24 04:15:03;;;;;;;10.93;4.65;;;14.40;99.90;;;;;;5061782;28;20085;-76
2021/07/24 04:17:29;;;;;;;14.32;6.05;;;14.40;99.90;;;;;;5078025;28;20016;-76
2021/07/24 04:19:55;;;;;;;12.13;5.78;;;14.40;99.90;;;;;;5096031;28;20062;-76
2021/07/24 04:22:22;;;;;;;13.57;5.07;;;14.40;99.90;;;;;;5096038;28;20027;-76
2021/07/24 04:24:48;;;;;;;11.18;4.80;;;14.40;99.90;;;;;;5096453;28;20031;-75
2021/07/24 04:27:14;;;;;;;10.82;4.00;;;14.50;99.90;;;;;;5096165;28;20024;-77
2021/07/24 04:29:39;;;;;;;13.95;5.18;;;16.60;99.90;;;;;;5096171;28;20028;-75
2021/07/24 04:32:06;;;;;;;12.25;4.10;;;14.50;99.90;;;;;;5096057;28;20032;-74
2021/07/24 04:34:31;;;;;;;9.07;4.05;;;14.60;99.90;;;;;;5077885;28;20024;-74
2021/07/24 04:36:57;;;;;;;10.50;4.57;;;14.70;99.90;;;;;;5095907;28;20024;-74
2021/07/24 04:39:23;;;;;;;9.27;4.55;;;14.80;99.90;;;;;;5085637;28;20096;-77
2021/07/24 04:41:49;;;;;;;10.23;4.20;;;14.80;99.90;;;;;;5076041;28;20060;-74
2021/07/24 04:44:14;;;;;;;12.65;4.22;;;14.90;99.90;;;;;;5075756;28;20050;-75
2021/07/24 04:46:40;;;;;;;12.77;4.32;;;14.90;99.90;;;;;;5057611;28;20545;-74
2021/07/24 04:49:06;;;;;;;11.23;4.30;;;15.00;99.90;;;;;;5075753;28;20063;-76
2021/07/24 04:51:33;;;;;;;12.60;4.20;;;15.00;99.90;;;;;;5075950;28;20062;-74
2021/07/24 04:53:59;;;;;;;11.80;4.15;;;15.00;99.90;;;;;;5069618;28;20016;-75
2021/07/24 04:56:25;;;;;;;10.70;4.07;;;15.00;99.90;;;;;;5077591;28;20362;-75
2021/07/24 04:58:55;;;;;;;9.65;3.67;;;15.00;99.90;;;;;;5077301;28;20027;-76
2021/07/24 05:01:21;;;;;;;15.90;6.32;;;15.00;99.90;;;;;;5095859;28;20049;-77
2021/07/24 05:03:48;;;;;;;11.07;4.30;;;15.00;99.90;;;;;;5077389;28;20385;-76
2021/07/24 05:06:14;;;;;;;12.85;4.80;;;15.00;99.90;;;;;;5095250;28;20024;-75
2021/07/24 05:08:40;;;;;;;15.48;5.18;;;15.00;99.90;;;;;;5095218;28;20372;-77
2021/07/24 05:11:05;;;;;;;11.60;4.25;;;15.00;99.90;;;;;;5075490;28;20067;-76
2021/07/24 05:13:31;;;;;;;13.20;4.50;;;15.00;99.90;;;;;;5057114;28;20481;-75
2021/07/24 05:15:57;;;;;;;12.50;4.18;;;15.10;99.90;;;;;;5056951;28;20478;-75
2021/07/24 05:18:22;;;;;;;9.93;3.88;;;15.10;99.90;;;;;;5074705;28;20502;-75
2021/07/24 05:20:48;;;;;;;17.00;5.38;;;15.10;99.90;;;;;;5056903;28;20020;-75
2021/07/24 05:23:14;;;;;;;12.02;4.30;;;15.10;99.90;;;;;;5075028;28;20074;-75
2021/07/24 05:25:41;;;;;;;11.15;5.28;;;15.20;99.90;;;;;;5075026;28;20035;-75
2021/07/24 05:28:06;;;;;;;8.40;3.17;;;15.20;99.90;;;;;;5056745;28;20103;-74
2021/07/24 05:30:32;;;;;;;13.13;4.18;;;15.30;99.90;;;;;;5056747;28;20098;-74
2021/07/24 05:32:58;;;;;;;13.50;4.18;;;15.50;99.90;;;;;;5074656;28;20024;-74
2021/07/24 05:35:25;;;;;;;12.07;4.10;;;15.50;99.90;;;;;;5074595;28;20077;-75
2021/07/24 05:37:51;;;;;;;11.57;4.55;;;15.60;99.90;;;;;;5056649;28;20074;-74
2021/07/24 05:40:17;;;;;;;9.60;4.38;;;15.60;99.90;;;;;;5080460;28;20091;-75
2021/07/24 05:42:42;;;;;;;12.55;4.00;;;15.70;99.90;;;;;;5090032;22;20048;-76
2021/07/24 05:45:08;;;;;;;10.15;4.10;;;16.30;99.90;;;;;;5104773;28;20051;-76
2021/07/24 05:47:34;;;;;;;9.20;3.85;;;15.90;99.90;;;;;;5114934;28;20469;-76
2021/07/24 05:50:01;;;;;;;9.68;3.92;;;16.00;99.90;;;;;;5114784;28;20026;-76
2021/07/24 05:52:27;;;;;;;11.13;3.78;;;16.10;99.90;;;;;;5114772;28;20049;-76
2021/07/24 05:54:52;;;;;;;9.75;3.47;;;16.30;99.90;;;;;;5096583;28;20073;-75
2021/07/24 05:57:18;;;;;;;10.55;3.92;;;16.40;99.90;;;;;;5114970;28;20020;-76
2021/07/24 05:59:44;;;;;;;7.35;3.10;;;16.50;99.90;;;;;;5114753;28;20046;-76
2021/07/24 06:02:14;;;;;;;9.40;3.25;;;16.60;99.90;;;;;;5096222;28;20034;-76
2021/07/24 06:04:43;;;;;;;10.38;4.15;;;16.80;99.90;;;;;;5114550;28;20077;-76
2021/07/24 06:07:09;;;;;;;7.80;3.45;;;16.90;99.90;;;;;;5115034;28;20020;-76
2021/07/24 06:09:35;;;;;;;8.02;3.10;;;17.00;99.90;;;;;;5114386;28;20054;-75
2021/07/24 06:12:00;;;;;;;10.13;4.15;;;17.10;99.90;;;;;;5096152;28;20055;-76
2021/07/24 06:14:26;;;;;;;9.00;3.83;;;17.30;99.90;;;;;;5096188;28;20030;-74
2021/07/24 06:16:52;;;;;;;7.40;3.08;;;17.30;99.90;;;;;;5114339;28;20388;-76
2021/07/24 06:19:18;;;;;;;9.45;2.83;;;17.40;99.90;;;;;;5114463;28;20027;-73
2021/07/24 06:21:44;;;;;;;9.55;3.97;;;17.50;99.90;;;;;;5114108;28;20027;-74
2021/07/24 06:24:10;;;;;;;9.98;3.45;;;17.60;99.90;;;;;;5096170;28;20022;-74
2021/07/24 06:26:39;;;;;;;8.40;3.42;;;17.70;99.90;;;;;;5114181;28;20435;-76
2021/07/24 06:29:05;;;;;;;;;;;17.80;99.90;;;;;;5096217;28;20024;-76
2021/07/24 06:31:31;;;;;;;8.82;2.92;;;17.90;99.90;;;;;;5114331;28;19907;-76
2021/07/24 06:33:57;;;;;;;6.97;2.83;;;18.10;99.90;;;;;;5113088;28;20023;-75
2021/07/24 06:36:23;;;;;;;7.00;2.78;;;18.20;99.90;;;;;;5096919;28;20023;-73
2021/07/24 06:38:48;;;;;;;9.45;2.88;;;18.30;99.90;;;;;;5114055;28;20080;-73
2021/07/24 06:41:14;;;;;;;8.60;2.85;;;18.50;99.90;;;;;;5095493;28;20031;-73
2021/07/24 06:43:39;;;;;;;8.13;2.65;;;18.60;99.90;;;;;;5096079;28;20041;-74
2021/07/24 06:46:12;;;;;;;7.35;3.20;;;18.60;99.90;;;;;;5113961;28;20451;-76
2021/07/24 06:48:38;;;;;;;7.95;3.08;;;18.80;99.90;;;;;;5095570;28;20023;-76
2021/07/24 06:51:07;;;;;;;12.63;3.85;;;18.90;99.90;;;;;;5114148;28;20019;-77
2021/07/24 06:53:36;;;;;;;6.10;2.90;;;19.10;99.90;;;;;;5113791;28;20038;-74
2021/07/24 06:56:03;;;;;;;5.47;2.47;;;19.20;99.90;;;;;;5113460;28;20539;-74
2021/07/24 06:58:29;;;;;;;6.85;3.00;;;19.20;99.90;;;;;;5113657;28;20365;-77
2021/07/24 07:00:55;;;;;;;7.25;3.05;;;19.30;99.90;;;;;;5076350;28;20024;-75
2021/07/24 07:03:20;;;;;;;6.82;2.88;;;19.40;99.90;;;;;;5093347;28;20016;-74
2021/07/24 07:05:46;;;;;;;7.28;3.10;;;19.50;99.90;;;;;;5093248;28;20114;-75
2021/07/24 07:08:11;;;;;;;8.60;2.42;;;19.60;99.90;;;;;;5075067;28;20016;-75
2021/07/24 07:10:37;;;;;;;5.65;2.83;;;19.70;99.90;;;;;;5075879;28;20118;-75
2021/07/24 07:13:02;;;;;;;6.25;2.65;;;19.70;99.90;;;;;;5075574;28;20047;-75
2021/07/24 07:15:28;;;;;;;8.02;2.70;;;19.90;99.90;;;;;;5093506;28;20027;-76
2021/07/24 07:17:55;;;;;;;5.03;2.42;;;20.10;99.90;;;;;;5075095;28;20032;-74
2021/07/24 07:20:21;;;;;;;6.20;2.53;;;20.20;99.90;;;;;;5093126;28;20016;-75
2021/07/24 07:22:47;;;;;;;6.55;2.67;;;20.40;99.90;;;;;;5093206;28;20066;-74
2021/07/24 07:25:13;;;;;;;4.18;2.00;;;20.60;99.90;;;;;;5093261;28;20023;-74
2021/07/24 07:27:42;;;;;;;6.53;2.63;;;20.70;99.90;;;;;;5093417;28;20028;-75
2021/07/24 07:30:09;;;;;;;6.72;2.85;;;20.80;99.90;;;;;;5093231;28;20103;-76
2021/07/24 07:32:35;;;;;;;4.75;2.13;;;21.00;99.90;;;;;;5093385;28;20028;-74
2021/07/24 07:35:01;;;;;;;3.88;2.30;;;21.00;99.90;;;;;;5092972;28;20461;-72
2021/07/24 07:37:26;;;;;;;16.08;2.80;;;21.20;99.90;;;;;;5093276;28;20373;-72
2021/07/24 07:39:52;;;;;;;4.22;1.85;;;21.20;99.90;;;;;;5094739;28;20060;-76
2021/07/24 07:42:18;;;;;;;6.15;2.75;;;21.30;99.90;;;;;;5092822;28;20109;-75
2021/07/24 07:44:43;;;;;;;6.95;2.20;;;21.40;99.90;;;;;;5093458;28;20020;-75
2021/07/24 07:47:09;;;;;;;4.97;2.08;;;21.40;99.90;;;;;;5096912;28;20027;-76
2021/07/24 07:49:35;;;;;;;3.92;2.20;;;21.40;99.90;;;;;;5097136;28;20040;-76
2021/07/24 07:52:01;;;;;;;5.43;2.65;;;21.40;99.90;;;;;;5079605;28;20069;-77
2021/07/24 07:54:30;;;;;;;7.70;3.10;;;21.50;99.90;;;;;;5078791;28;20118;-77
2021/07/24 07:56:57;;;;;;;5.53;2.35;;;21.40;99.90;;;;;;5079640;28;20020;-77
2021/07/24 07:59:24;;;;;;;4.20;2.00;;;21.50;99.90;;;;;;5098531;28;20032;-74
2021/07/24 08:01:49;;;;;;;5.82;2.33;;;21.50;99.90;;;;;;5116249;28;20021;-73
2021/07/24 08:04:15;;;;;;;5.72;2.53;;;21.50;99.90;;;;;;5117588;28;20031;-73
2021/07/24 08:06:40;;;;;;;4.82;2.17;;;21.60;99.90;;;;;;5117999;28;20015;-73
2021/07/24 08:09:06;;;;;;;5.78;2.20;;;21.70;99.90;;;;;;5108889;28;20353;-75
2021/07/24 08:11:32;;;;;;;7.93;2.47;;;21.80;99.90;;;;;;5100373;28;20102;-75
2021/07/24 08:13:57;;;;;;;4.07;1.95;;;21.80;99.90;;;;;;5100624;28;20111;-73
2021/07/24 08:16:23;;;;;;;5.18;2.53;;;21.90;99.90;;;;;;5120651;28;20106;-73
2021/07/24 08:18:48;;;;;;;5.85;2.40;;;22.00;99.90;;;;;;5119357;28;20485;-73
2021/07/24 08:21:14;;;;;;;7.22;2.95;;;22.10;99.90;;;;;;5117712;28;20020;-75
2021/07/24 08:23:40;;;;;;;9.88;3.17;;;22.10;99.90;;;;;;5102298;28;20533;-75
2021/07/24 08:26:05;;;;;;;4.47;2.28;;;22.10;99.90;;;;;;5095887;28;20040;-74
2021/07/24 08:28:31;;;;;;;6.10;2.55;;;22.10;99.90;;;;;;5077571;28;20023;-75
2021/07/24 08:30:57;;;;;;;5.82;2.45;;;22.20;99.90;;;;;;5096168;28;20026;-75
2021/07/24 08:33:22;;;;;;;4.05;2.15;;;22.30;99.90;;;;;;5096134;28;20077;-75
2021/07/24 08:35:48;;;;;;;6.97;3.83;;;22.30;99.90;;;;;;5096391;28;20424;-74
2021/07/24 08:38:14;;;;;;;8.60;3.17;;;22.50;99.90;;;;;;5096196;28;20363;-75
2021/07/24 08:40:40;;;;;;;5.38;2.55;;;22.50;99.90;;;;;;5115853;28;20449;-75
2021/07/24 08:43:07;;;;;;;10.32;3.40;;;22.50;99.90;;;;;;5116340;28;20085;-77
2021/07/24 08:45:33;;;;;;;4.32;2.45;;;22.60;99.90;;;;;;5098042;28;20020;-77
2021/07/24 08:48:02;;;;;;;6.22;3.08;;;22.70;99.90;;;;;;5116003;28;20027;-77
2021/07/24 08:50:28;;;;;;;7.95;2.30;;;22.80;99.90;;;;;;5116183;28;20016;-77
2021/07/24 08:52:55;;;;;;;5.78;2.83;;;22.90;99.90;;;;;;5116214;28;20020;-77
2021/07/24 08:55:22;;;;;;;8.80;2.75;;;23.00;99.90;;;;;;5111022;28;20020;-77
2021/07/24 08:57:50;;;;;;;8.52;2.20;;;23.00;99.90;;;;;;5095568;28;20023;-77
2021/07/24 09:00:18;;;;;;;7.03;2.53;;;23.00;99.90;;;;;;5095857;28;20039;-77
2021/07/24 09:02:47;;;;;;;7.30;3.20;;;23.10;99.90;;;;;;5095782;28;20027;-77
2021/07/24 09:05:15;;;;;;;6.88;2.83;;;23.10;99.90;;;;;;5095727;28;20050;-74
2021/07/24 09:07:46;;;;;;;5.63;2.60;;;23.10;99.90;;;;;;5077301;28;20093;-75
2021/07/24 09:10:12;;;;;;;4.68;2.42;;;23.20;99.90;;;;;;5095478;28;20020;-74
2021/07/24 09:12:42;;;;;;;8.00;2.80;;;23.30;99.90;;;;;;5096819;28;20070;-75
2021/07/24 09:15:10;;;;;;;5.38;2.30;;;23.30;99.90;;;;;;5095395;28;20050;-76
2021/07/24 09:17:36;;;;;;;7.43;3.47;;;23.40;99.90;;;;;;5095657;28;20376;-73
2021/07/24 09:20:03;;;;;;;8.40;3.08;;;23.50;99.90;;;;;;5076997;28;20016;-75
2021/07/24 09:22:30;;;;;;;5.70;3.03;;;23.60;99.90;;;;;;5095249;28;20028;-76
2021/07/24 09:25:17;;;;;;;5.70;2.83;;;23.60;99.90;;;;;;5095560;28;20017;-76
2021/07/24 09:27:45;;;;;;;4.47;2.95;;;23.70;99.90;;;;;;5095699;28;20020;-73
2021/07/24 09:30:27;;;;;;;8.05;3.22;;;23.80;99.90;;;;;;5094929;28;20086;-73
2021/07/24 09:33:10;;;;;;;8.30;2.95;;;23.90;99.90;;;;;;5076754;28;20092;-73
2021/07/24 09:35:43;;;;;;;5.55;2.72;;;23.80;99.90;;;;;;5076911;28;20028;-77
2021/07/24 09:38:11;;;;;;;7.43;3.25;;;23.90;99.90;;;;;;5095971;28;20103;-74
2021/07/24 09:40:39;;;;;;;4.90;2.72;;;23.90;99.90;;;;;;5096957;28;20059;-74
2021/07/24 09:43:28;;;;;;;6.38;3.17;;;23.90;99.90;;;;;;5099295;28;20051;-75
2021/07/24 09:46:13;;;;;;;6.07;3.38;;;24.00;99.90;;;;;;5077895;28;20024;-73
2021/07/24 09:48:50;;;;;;;10.65;3.10;;;24.00;99.90;;;;;;5076668;28;20036;-74
2021/07/24 09:51:32;;;;;;;7.22;3.40;;;24.00;99.90;;;;;;5081141;28;20043;-74
2021/07/24 09:53:59;;;;;;;8.45;3.33;;;23.90;99.90;;;;;;5076340;28;20051;-73
2021/07/24 09:56:42;;;;;;;7.05;3.28;;;23.90;99.90;;;;;;5076671;28;20085;-77
2021/07/24 09:59:23;;;;;;;8.13;3.42;;;23.90;99.90;;;;;;5094816;28;20103;-76
2021/07/24 10:01:54;;;;;;;6.43;2.88;;;24.10;99.90;;;;;;5095449;28;20034;-76
2021/07/24 10:04:40;;;;;;;6.47;3.10;;;24.20;99.90;;;;;;5094843;28;20469;-74
2021/07/24 10:07:09;;;;;;;5.72;3.25;;;24.40;99.90;;;;;;5095394;28;20052;-73
2021/07/24 10:09:41;;;;;;;7.07;3.28;;;24.50;99.90;;;;;;5091327;28;20491;-73
2021/07/24 10:12:09;;;;;;;6.60;3.08;;;24.70;99.90;;;;;;5095560;28;20085;-76
2021/07/24 10:14:39;;;;;;;8.57;3.53;;;24.90;99.90;;;;;;5094218;28;20020;-76
2021/07/24 10:17:06;;;;;;;5.55;2.90;;;24.90;99.50;;;;;;5094264;28;20551;-77
2021/07/24 10:19:32;;;;;;;5.28;2.75;;;25.00;99.60;;;;;;5095325;28;20081;-77
2021/07/24 10:21:59;;;;;;;6.55;3.38;;;25.10;99.20;;;;;;5095493;28;20050;-77
2021/07/24 10:24:25;;;;;;;7.13;3.05;;;25.00;99.70;;;;;;5094829;28;20409;-75
2021/07/24 10:27:13;;;;;;;6.15;3.08;;;25.00;99.90;;;;;;5093889;28;20020;-76
2021/07/24 10:29:41;;;;;;;6.73;2.53;;;24.90;99.90;;;;;;5094315;28;20028;-74
2021/07/24 10:32:08;;;;;;;;;;;24.80;99.30;;;;;;5094348;28;20035;-75
2021/07/24 10:34:36;;;;;;;5.68;2.63;;;24.70;99.90;;;;;;5094113;28;19912;-75
2021/07/24 10:37:32;;;;;;;5.15;2.92;;;24.80;99.90;;;;;;5103755;28;20024;-74
2021/07/24 10:40:25;;;;;;;6.78;3.33;;;24.80;99.90;;;;;;5094035;28;20036;-74
2021/07/24 10:42:52;;;;;;;6.07;2.55;;;24.90;98.90;;;;;;5062912;28;20074;-74
2021/07/24 10:45:37;;;;;;;5.03;2.55;;;24.80;99.60;;;;;;5093798;28;20024;-73
2021/07/24 10:48:19;;;;;;;6.13;2.65;;;24.80;99.90;;;;;;5075558;28;20024;-73
2021/07/24 10:50:54;;;;;;;6.03;3.20;;;24.80;99.90;;;;;;5113649;28;20028;-73
2021/07/24 10:53:20;;;;;;;5.85;3.33;;;24.80;99.90;;;;;;5100783;28;20026;-73
2021/07/24 10:55:47;;;;;;;12.43;3.53;;;24.80;99.90;;;;;;5094253;28;20032;-73
2021/07/24 10:58:13;;;;;;;11.02;3.22;;;24.70;99.90;;;;;;5093853;28;20023;-74
2021/07/24 11:00:50;;;;;;;8.63;3.13;;;24.70;99.90;;;;;;5093559;28;20389;-77
2021/07/24 11:03:39;;;;;;;6.00;3.45;;;24.70;99.90;;;;;;5112664;28;20023;-77
2021/07/24 11:06:32;;;;;;;5.72;2.80;;;24.70;99.90;;;;;;5094622;28;20122;-77
2021/07/24 11:08:57;;;;;;;4.45;2.35;;;24.60;99.90;;;;;;5095155;28;20089;-74
2021/07/24 11:11:39;;;;;;;6.97;2.92;;;24.60;99.90;;;;;;5093931;28;20028;-73
2021/07/24 11:14:05;;;;;;;6.57;2.50;;;24.50;99.90;;;;;;5093752;28;20020;-74
2021/07/24 11:17:22;;;;;;;4.22;2.63;;;24.50;99.90;;;;;;5104881;28;20026;-76
2021/07/24 11:19:50;;;;;;;7.57;2.80;;;24.50;99.90;;;;;;5040388;28;20043;-76
2021/07/24 11:22:16;;;;;;;;;;;24.40;99.90;;;;;;5079233;28;20033;-75
2021/07/24 11:24:47;;;;;;;6.43;3.63;;;24.30;99.90;;;;;;5098099;28;19958;-77
2021/07/24 11:27:12;;;;;;;8.80;4.10;;;24.20;99.90;;;;;;5098603;28;20020;-77
2021/07/24 11:29:38;;;;;;;7.05;3.53;;;24.10;99.90;;;;;;5113044;28;20525;-78
2021/07/24 11:32:05;;;;;;;5.93;3.30;;;24.00;99.90;;;;;;5097929;28;20068;-76
2021/07/24 11:34:32;;;;;;;8.30;3.40;;;23.90;99.90;;;;;;5096983;28;20035;-76
2021/07/24 11:36:59;;;;;;;7.40;3.55;;;23.80;99.90;;;;;;5117438;28;20011;-76
2021/07/24 11:39:26;;;;;;;6.68;3.30;;;23.80;99.90;;;;;;5107228;28;20106;-74
2021/07/24 11:41:53;;;;;;;5.57;3.33;;;23.70;99.90;;;;;;5109819;28;20028;-74
2021/07/24 11:44:32;;;;;;;6.85;3.05;;;23.70;99.90;;;;;;5099178;28;20016;-74
2021/07/24 11:46:59;;;;;;;6.75;3.60;;;23.60;99.90;;;;;;5097447;28;20024;-74
2021/07/24 11:49:26;;;;;;;7.45;3.80;;;23.60;99.90;;;;;;5117673;28;20488;-75
2021/07/24 11:51:52;;;;;;;8.63;3.40;;;23.70;99.90;;;;;;5117343;28;20031;-76
2021/07/24 11:54:35;;;;;;;11.57;3.35;;;23.60;99.90;;;;;;5117326;28;20024;-77
2021/07/24 11:57:02;;;;;;;8.02;3.50;;;23.70;99.90;;;;;;5080519;28;20392;-76
2021/07/24 11:59:30;;;;;;;6.82;3.55;;;23.70;99.90;;;;;;5116468;28;20020;-74
2021/07/24 12:01:57;;;;;;;7.18;3.30;;;23.70;99.90;;;;;;5116177;28;20495;-74
2021/07/24 12:04:23;;;;;;;6.30;3.13;;;23.60;99.90;;;;;;5097347;28;20020;-74
2021/07/24 12:07:09;;;;;;;9.70;3.40;;;23.80;99.90;;;;;;5078856;28;20012;-78
2021/07/24 12:09:36;;;;;;;6.80;3.20;;;23.60;99.90;;;;;;5112230;28;20481;-77
2021/07/24 12:12:02;;;;;;;5.88;3.05;;;23.60;99.90;;;;;;5116947;28;20022;-75
2021/07/24 12:14:28;;;;;;;9.05;3.53;;;23.60;99.90;;;;;;5115223;28;20112;-74
2021/07/24 12:17:08;;;;;;;6.25;3.40;;;23.60;99.90;;;;;;5116417;28;20028;-75
2021/07/24 12:19:42;;;;;;;6.13;3.28;;;23.50;99.90;;;;;;5098476;28;20050;-75
2021/07/24 12:22:18;;;;;;;7.30;3.40;;;23.50;99.90;;;;;;5095517;28;20031;-75
2021/07/24 12:24:46;;;;;;;10.50;3.92;;;23.50;99.90;;;;;;5096531;28;20073;-76
2021/07/24 12:27:17;;;;;;;7.10;3.87;;;23.50;99.90;;;;;;5078799;28;20200;-75
2021/07/24 12:29:53;;;;;;;7.03;3.63;;;23.50;99.90;;;;;;5069186;22;20047;-74
2021/07/24 12:32:21;;;;;;;7.40;3.63;;;23.50;99.90;;;;;;5035682;28;20026;-78
2021/07/24 12:34:47;;;;;;;9.63;3.83;;;23.50;99.90;;;;;;5056164;28;20393;-74
2021/07/24 12:37:27;;;;;;;7.38;3.92;;;23.60;99.90;;;;;;5055755;28;20025;-75
2021/07/24 12:39:53;;;;;;;7.65;3.42;;;23.60;99.90;;;;;;5067530;28;20024;-74
2021/07/24 12:42:30;;;;;;;7.00;3.65;;;23.60;99.90;;;;;;5075556;28;20078;-77
2021/07/24 12:44:59;;;;;;;12.02;3.90;;;23.60;99.90;;;;;;5075996;28;20021;-74
2021/07/24 12:47:26;;;;;;;8.35;3.58;;;23.70;99.90;;;;;;5075545;28;20020;-74
2021/07/24 12:49:53;;;;;;;6.35;3.88;;;23.80;99.90;;;;;;5075321;28;20028;-75
2021/07/24 12:52:49;;;;;;;7.10;3.65;;;23.90;99.90;;;;;;5058021;28;20020;-75
2021/07/24 12:55:23;;;;;;;6.95;3.28;;;23.90;99.90;;;;;;5056848;28;20071;-75